createdAt,value
2018-09-15T00:00:47.016Z,15.60
2018-09-15T00:03:22.031Z,15.60
2018-09-15T00:05:59.833Z,15.50
2018-09-15T00:08:34.672Z,15.50
2018-09-15T00:11:09.629Z,15.40
2018-09-15T00:13:45.035Z,15.40
2018-09-15T00:16:19.819Z,15.40
2018-09-15T00:18:54.639Z,15.40
2018-09-15T00:21:30.411Z,15.40
2018-09-15T00:24:05.671Z,15.40
2018-09-15T00:26:40.546Z,15.40
2018-09-15T00:29:16.165Z,15.30
2018-09-15T00:31:51.413Z,15.30
2018-09-15T00:34:26.360Z,15.30
2018-09-15T00:37:01.405Z,15.30
2018-09-15T00:39:36.343Z,15.30
2018-09-15T00:42:11.371Z,15.20
2018-09-15T00:44:46.240Z,15.20
2018-09-15T00:47:21.362Z,15.10
2018-09-15T00:49:51.014Z,15.10
2018-09-15T00:52:26.617Z,15.10
2018-09-15T00:55:02.092Z,15.10
2018-09-15T00:57:36.942Z,15.10
2018-09-15T01:00:12.297Z,15.00
2018-09-15T01:02:47.338Z,15.00
2018-09-15T01:05:22.495Z,14.90
2018-09-15T01:07:57.797Z,14.90
2018-09-15T01:10:32.479Z,14.90
2018-09-15T01:13:07.479Z,14.80
2018-09-15T01:15:42.332Z,14.80
2018-09-15T01:18:17.277Z,14.80
2018-09-15T01:20:51.961Z,14.70
2018-09-15T01:23:26.931Z,14.70
2018-09-15T01:26:01.932Z,14.60
2018-09-15T01:28:37.009Z,14.60
2018-09-15T01:31:12.384Z,14.60
2018-09-15T01:33:47.244Z,14.60
2018-09-15T01:36:23.896Z,14.50
2018-09-15T01:38:59.825Z,14.50
2018-09-15T01:41:35.818Z,14.50
2018-09-15T01:44:11.072Z,14.50
2018-09-15T01:46:45.950Z,14.40
2018-09-15T01:49:20.989Z,14.50
2018-09-15T01:51:56.158Z,14.50
2018-09-15T01:54:31.069Z,14.50
2018-09-15T01:57:06.025Z,14.40
2018-09-15T01:59:41.308Z,14.40
2018-09-15T02:02:16.243Z,14.40
2018-09-15T02:04:50.993Z,14.30
2018-09-15T02:07:26.088Z,14.40
2018-09-15T02:10:01.147Z,14.40
2018-09-15T02:12:36.066Z,14.40
2018-09-15T02:15:10.884Z,14.40
2018-09-15T02:17:45.719Z,14.40
2018-09-15T02:20:20.356Z,14.40
2018-09-15T02:22:55.699Z,14.40
2018-09-15T02:25:30.886Z,14.40
2018-09-15T02:28:06.210Z,14.40
2018-09-15T02:30:41.541Z,14.50
2018-09-15T02:33:16.520Z,14.50
2018-09-15T02:35:52.119Z,14.60
2018-09-15T02:38:27.376Z,14.60
2018-09-15T02:41:02.260Z,14.70
2018-09-15T02:43:37.451Z,14.70
2018-09-15T02:46:12.123Z,14.70
2018-09-15T02:48:47.720Z,14.70
2018-09-15T02:51:22.567Z,14.70
2018-09-15T02:53:57.698Z,14.70
2018-09-15T02:56:32.696Z,14.80
2018-09-15T02:59:07.521Z,14.80
2018-09-15T03:01:42.603Z,14.80
2018-09-15T03:04:17.837Z,14.80
2018-09-15T03:06:52.627Z,14.80
2018-09-15T03:09:27.710Z,14.80
2018-09-15T03:12:02.775Z,14.80
2018-09-15T03:14:37.398Z,14.80
2018-09-15T03:17:12.455Z,14.80
2018-09-15T03:19:47.377Z,14.80
2018-09-15T03:22:22.450Z,14.80
2018-09-15T03:24:57.909Z,14.80
2018-09-15T03:27:33.077Z,14.80
2018-09-15T03:30:07.914Z,14.80
2018-09-15T03:32:42.641Z,14.80
2018-09-15T03:35:17.947Z,14.80
2018-09-15T03:37:53.032Z,14.80
2018-09-15T03:40:27.996Z,14.80
2018-09-15T03:43:03.136Z,14.80
2018-09-15T03:45:38.102Z,14.80
2018-09-15T03:48:13.357Z,14.80
2018-09-15T03:50:48.641Z,14.80
2018-09-15T03:53:23.567Z,14.80
2018-09-15T03:55:58.677Z,14.80
2018-09-15T03:58:33.671Z,14.80
2018-09-15T04:01:21.144Z,14.80
2018-09-15T04:03:55.989Z,14.80
2018-09-15T04:06:30.868Z,14.70
2018-09-15T04:09:08.114Z,14.70
2018-09-15T04:11:42.995Z,14.70
2018-09-15T04:14:17.906Z,14.70
2018-09-15T04:16:52.679Z,14.60
2018-09-15T04:19:27.870Z,14.60
2018-09-15T04:22:02.885Z,14.60
2018-09-15T04:24:38.815Z,14.60
2018-09-15T04:27:14.007Z,14.60
2018-09-15T04:29:48.664Z,14.60
2018-09-15T04:32:23.527Z,14.50
2018-09-15T04:34:58.514Z,14.60
2018-09-15T04:37:33.708Z,14.60
2018-09-15T04:40:08.644Z,14.60
2018-09-15T04:42:44.802Z,14.50
2018-09-15T04:45:19.750Z,14.50
2018-09-15T04:47:54.568Z,14.50
2018-09-15T04:50:29.404Z,14.50
2018-09-15T04:53:04.426Z,14.50
2018-09-15T04:55:40.098Z,14.40
2018-09-15T04:58:15.084Z,14.40
2018-09-15T05:00:50.153Z,14.30
2018-09-15T05:03:25.097Z,14.30
2018-09-15T05:06:00.140Z,14.30
2018-09-15T05:08:35.100Z,14.20
2018-09-15T05:11:09.939Z,14.10
2018-09-15T05:13:44.834Z,14.10
2018-09-15T05:16:20.067Z,14.00
2018-09-15T05:18:54.993Z,14.10
2018-09-15T05:21:30.119Z,14.10
2018-09-15T05:24:05.772Z,14.00
2018-09-15T05:26:40.725Z,14.00
2018-09-15T05:29:16.010Z,13.90
2018-09-15T05:31:51.716Z,13.90
2018-09-15T05:34:26.690Z,13.90
2018-09-15T05:37:01.966Z,13.90
2018-09-15T05:39:36.806Z,13.90
2018-09-15T05:42:11.847Z,13.90
2018-09-15T05:44:46.921Z,13.90
2018-09-15T05:47:22.069Z,13.90
2018-09-15T05:49:57.248Z,13.90
2018-09-15T05:52:32.251Z,13.90
2018-09-15T05:55:08.511Z,13.90
2018-09-15T05:57:43.860Z,13.90
2018-09-15T06:00:19.690Z,13.90
2018-09-15T06:02:54.669Z,13.90
2018-09-15T06:05:29.532Z,14.00
2018-09-15T06:08:04.484Z,13.90
2018-09-15T06:10:39.886Z,14.00
2018-09-15T06:13:14.658Z,13.90
2018-09-15T06:15:49.531Z,13.90
2018-09-15T06:18:24.677Z,14.00
2018-09-15T06:21:00.534Z,14.00
2018-09-15T06:23:35.279Z,13.90
2018-09-15T06:26:12.417Z,13.90
2018-09-15T06:28:47.651Z,13.90
2018-09-15T06:31:23.249Z,13.90
2018-09-15T06:33:58.437Z,13.90
2018-09-15T06:36:33.476Z,13.90
2018-09-15T06:39:10.475Z,13.90
2018-09-15T06:41:46.641Z,13.90
2018-09-15T06:44:21.857Z,13.90
2018-09-15T06:46:56.942Z,14.00
2018-09-15T06:49:31.961Z,14.00
2018-09-15T06:52:08.015Z,14.00
2018-09-15T06:54:43.881Z,14.00
2018-09-15T06:57:19.266Z,14.00
2018-09-15T06:59:54.235Z,14.10
2018-09-15T07:02:29.872Z,14.10
2018-09-15T07:05:04.658Z,14.10
2018-09-15T07:07:39.621Z,14.20
2018-09-15T07:10:14.589Z,14.20
2018-09-15T07:12:44.046Z,14.30
2018-09-15T07:15:24.122Z,14.30
2018-09-15T07:17:59.057Z,14.40
2018-09-15T07:20:34.770Z,14.40
2018-09-15T07:23:09.775Z,14.50
2018-09-15T07:25:44.861Z,14.80
2018-09-15T07:28:20.201Z,14.90
2018-09-15T07:30:55.334Z,14.90
2018-09-15T07:33:30.453Z,14.90
2018-09-15T07:36:06.047Z,14.90
2018-09-15T07:38:41.099Z,14.90
2018-09-15T07:41:16.344Z,14.90
2018-09-15T07:43:52.377Z,14.90
2018-09-15T07:46:22.073Z,14.90
2018-09-15T07:48:56.914Z,14.90
2018-09-15T07:51:32.299Z,15.00
2018-09-15T07:54:07.892Z,15.00
2018-09-15T07:56:42.742Z,15.00
2018-09-15T07:59:17.861Z,15.00
2018-09-15T08:01:53.114Z,15.10
2018-09-15T08:04:28.341Z,15.20
2018-09-15T08:07:03.341Z,15.30
2018-09-15T08:09:38.431Z,15.50
2018-09-15T08:12:13.642Z,15.70
2018-09-15T08:14:48.801Z,16.00
2018-09-15T08:17:23.999Z,16.30
2018-09-15T08:19:59.335Z,16.50
2018-09-15T08:22:34.480Z,16.50
2018-09-15T08:25:09.973Z,16.50
2018-09-15T08:27:44.867Z,16.40
2018-09-15T08:30:21.550Z,16.40
2018-09-15T08:32:56.796Z,16.40
2018-09-15T08:35:31.720Z,16.50
2018-09-15T08:38:06.893Z,16.60
2018-09-15T08:40:36.152Z,16.70
2018-09-15T08:43:11.074Z,16.80
2018-09-15T08:45:49.315Z,16.80
2018-09-15T08:48:24.481Z,16.90
2018-09-15T08:50:59.752Z,17.10
2018-09-15T08:53:35.590Z,17.20
2018-09-15T08:56:13.853Z,17.30
2018-09-15T08:58:49.076Z,17.30
2018-09-15T09:01:23.840Z,17.40
2018-09-15T09:03:59.092Z,17.40
2018-09-15T09:06:34.579Z,17.40
2018-09-15T09:09:11.358Z,17.50
2018-09-15T09:11:46.322Z,17.60
2018-09-15T09:14:21.154Z,17.70
2018-09-15T09:16:57.618Z,17.80
2018-09-15T09:19:32.874Z,17.90
2018-09-15T09:22:08.079Z,18.10
2018-09-15T09:24:43.046Z,18.40
2018-09-15T09:27:18.210Z,18.40
2018-09-15T09:29:53.310Z,18.30
2018-09-15T09:32:28.654Z,18.20
2018-09-15T09:35:04.366Z,18.00
2018-09-15T09:37:39.307Z,17.70
2018-09-15T09:40:14.226Z,17.60
2018-09-15T09:42:49.918Z,17.40
2018-09-15T09:45:25.072Z,17.20
2018-09-15T09:48:00.753Z,17.20
2018-09-15T09:50:36.417Z,17.30
2018-09-15T09:53:18.921Z,17.50
2018-09-15T09:55:53.742Z,17.70
2018-09-15T09:58:28.641Z,18.00
2018-09-15T10:01:08.944Z,18.10
2018-09-15T10:03:44.172Z,18.10
2018-09-15T10:06:18.949Z,18.00
2018-09-15T10:08:53.639Z,18.00
2018-09-15T10:11:28.860Z,18.00
2018-09-15T10:14:04.729Z,17.90
2018-09-15T10:16:46.308Z,17.90
2018-09-15T10:19:21.344Z,17.90
2018-09-15T10:24:56.299Z,17.90
2018-09-15T10:27:31.326Z,18.00
2018-09-15T10:30:06.385Z,18.10
2018-09-15T10:32:41.599Z,18.20
2018-09-15T10:35:16.478Z,18.40
2018-09-15T10:37:51.961Z,18.50
2018-09-15T10:40:26.827Z,18.50
2018-09-15T10:43:02.035Z,18.60
2018-09-15T10:45:37.291Z,18.60
2018-09-15T10:48:13.085Z,18.60
2018-09-15T10:50:47.987Z,18.80
2018-09-15T10:53:23.308Z,18.90
2018-09-15T10:55:58.406Z,19.00
2018-09-15T10:58:33.591Z,19.10
2018-09-15T11:01:08.605Z,19.20
2018-09-15T11:03:43.628Z,19.30
2018-09-15T11:06:18.409Z,19.50
2018-09-15T11:08:53.503Z,19.60
2018-09-15T11:11:28.542Z,19.80
2018-09-15T11:14:04.029Z,19.80
2018-09-15T11:16:39.131Z,19.80
2018-09-15T11:19:14.156Z,19.70
2018-09-15T11:21:49.359Z,19.60
2018-09-15T11:24:24.440Z,19.70
2018-09-15T11:26:54.440Z,19.60
2018-09-15T11:29:23.889Z,19.60
2018-09-15T11:31:53.542Z,19.60
2018-09-15T11:34:23.040Z,19.40
2018-09-15T11:36:52.679Z,19.40
2018-09-15T11:39:22.214Z,19.30
2018-09-15T11:41:51.847Z,19.30
2018-09-15T11:44:21.566Z,19.50
2018-09-15T11:46:51.056Z,19.70
2018-09-15T11:49:20.613Z,19.90
2018-09-15T11:51:50.208Z,20.10
2018-09-15T11:54:19.979Z,20.10
2018-09-15T11:56:52.025Z,20.20
2018-09-15T11:59:22.097Z,20.30
2018-09-15T12:01:52.347Z,20.50
2018-09-15T12:04:22.756Z,20.40
2018-09-15T12:06:52.060Z,20.30
2018-09-15T12:09:21.552Z,20.40
2018-09-15T12:11:56.038Z,20.50
2018-09-15T12:14:25.574Z,20.60
2018-09-15T12:16:55.149Z,20.60
2018-09-15T12:19:25.850Z,20.50
2018-09-15T12:22:01.063Z,20.50
2018-09-15T12:24:30.516Z,20.50
2018-09-15T12:27:00.136Z,20.50
2018-09-15T12:29:29.418Z,20.50
2018-09-15T12:31:59.406Z,20.50
2018-09-15T12:34:29.146Z,20.60
2018-09-15T12:36:59.209Z,20.70
2018-09-15T12:39:29.051Z,20.70
2018-09-15T12:42:04.211Z,20.90
2018-09-15T12:44:39.484Z,21.00
2018-09-15T12:47:14.833Z,21.00
2018-09-15T12:49:50.551Z,20.90
2018-09-15T12:52:20.720Z,20.90
2018-09-15T12:54:50.764Z,20.80
2018-09-15T12:57:20.552Z,20.70
2018-09-15T12:59:50.132Z,20.70
2018-09-15T13:02:19.608Z,20.60
2018-09-15T13:04:49.208Z,20.70
2018-09-15T13:07:24.135Z,20.70
2018-09-15T13:09:59.970Z,20.80
2018-09-15T13:12:35.852Z,20.70
2018-09-15T13:15:11.206Z,20.70
2018-09-15T13:17:47.842Z,20.70
2018-09-15T13:20:22.931Z,20.70
2018-09-15T13:22:59.298Z,20.60
2018-09-15T13:25:34.406Z,20.70
2018-09-15T13:28:09.593Z,20.70
2018-09-15T13:30:39.114Z,20.80
2018-09-15T13:33:14.469Z,20.70
2018-09-15T13:35:51.278Z,20.70
2018-09-15T13:38:22.784Z,20.60
2018-09-15T13:40:58.757Z,20.60
2018-09-15T13:43:34.070Z,20.60
2018-09-15T13:46:09.050Z,20.60
2018-09-15T13:48:45.324Z,20.60
2018-09-15T13:51:20.241Z,20.60
2018-09-15T13:53:55.925Z,20.50
2018-09-15T13:56:30.815Z,20.50
2018-09-15T13:59:06.607Z,20.40
2018-09-15T14:01:42.536Z,20.40
2018-09-15T14:04:17.595Z,20.40
2018-09-15T14:06:52.635Z,20.40
2018-09-15T14:09:22.179Z,20.50
2018-09-15T14:11:51.678Z,20.50
2018-09-15T14:14:21.302Z,20.50
2018-09-15T14:16:50.981Z,20.50
2018-09-15T14:19:26.513Z,20.50
2018-09-15T14:22:01.616Z,20.60
2018-09-15T14:24:37.141Z,20.60
2018-09-15T14:27:12.294Z,20.60
2018-09-15T14:29:47.739Z,20.60
2018-09-15T14:32:22.778Z,20.60
2018-09-15T14:34:58.030Z,20.70
2018-09-15T14:37:33.366Z,20.70
2018-09-15T14:40:09.507Z,20.80
2018-09-15T14:42:44.879Z,20.90
2018-09-15T14:45:20.186Z,20.90
2018-09-15T14:47:55.505Z,21.00
2018-09-15T14:50:30.631Z,21.10
2018-09-15T14:53:06.005Z,20.90
2018-09-15T14:55:40.874Z,20.70
2018-09-15T14:58:16.257Z,20.60
2018-09-15T15:00:51.657Z,20.60
2018-09-15T15:03:21.385Z,20.60
2018-09-15T15:05:51.373Z,20.60
2018-09-15T15:08:21.269Z,20.60
2018-09-15T15:10:52.266Z,20.70
2018-09-15T15:13:27.331Z,20.60
2018-09-15T15:16:02.298Z,20.70
2018-09-15T15:18:31.854Z,20.70
2018-09-15T15:21:02.924Z,20.70
2018-09-15T15:23:32.717Z,20.60
2018-09-15T15:26:02.333Z,20.60
2018-09-15T15:28:38.217Z,20.50
2018-09-15T15:31:13.650Z,20.50
2018-09-15T15:33:48.693Z,20.40
2018-09-15T15:36:23.777Z,20.40
2018-09-15T15:38:59.000Z,20.40
2018-09-15T15:41:34.170Z,20.40
2018-09-15T15:44:04.152Z,20.40
2018-09-15T15:46:33.748Z,20.40
2018-09-15T15:49:03.604Z,20.40
2018-09-15T15:51:38.510Z,20.40
2018-09-15T15:54:08.170Z,20.40
2018-09-15T15:56:44.668Z,20.40
2018-09-15T15:59:14.412Z,20.20
2018-09-15T16:01:53.893Z,20.20
2018-09-15T16:04:29.081Z,20.10
2018-09-15T16:07:04.816Z,20.10
2018-09-15T16:09:40.014Z,20.10
2018-09-15T16:12:15.375Z,20.10
2018-09-15T16:14:51.039Z,20.10
2018-09-15T16:17:21.675Z,20.10
2018-09-15T16:19:57.199Z,20.20
2018-09-15T16:22:33.312Z,20.20
2018-09-15T16:25:08.920Z,20.30
2018-09-15T16:27:44.071Z,20.40
2018-09-15T16:30:18.288Z,20.50
2018-09-15T16:32:47.839Z,20.50
2018-09-15T16:35:22.823Z,20.50
2018-09-15T16:37:58.018Z,20.40
2018-09-15T16:40:33.299Z,20.40
2018-09-15T16:43:08.279Z,20.40
2018-09-15T16:45:43.354Z,20.40
2018-09-15T16:48:18.374Z,20.40
2018-09-15T16:50:53.927Z,20.30
2018-09-15T16:53:28.878Z,20.30
2018-09-15T16:56:03.737Z,20.20
2018-09-15T16:58:38.725Z,20.20
2018-09-15T17:01:14.072Z,20.10
2018-09-15T17:03:50.645Z,20.10
2018-09-15T17:06:26.020Z,20.00
2018-09-15T17:09:01.916Z,19.90
2018-09-15T17:11:37.758Z,19.90
2018-09-15T17:14:12.771Z,19.80
2018-09-15T17:16:48.019Z,19.70
2018-09-15T17:19:20.673Z,19.70
2018-09-15T17:21:55.932Z,19.60
2018-09-15T17:24:31.947Z,19.60
2018-09-15T17:27:07.370Z,19.50
2018-09-15T17:29:42.282Z,19.40
2018-09-15T17:32:17.727Z,19.40
2018-09-15T17:34:52.654Z,19.30
2018-09-15T17:37:27.605Z,19.30
2018-09-15T17:40:02.653Z,19.20
2018-09-15T17:42:37.541Z,19.10
2018-09-15T17:45:12.733Z,19.10
2018-09-15T17:47:47.898Z,19.00
2018-09-15T17:50:23.141Z,18.90
2018-09-15T17:52:58.306Z,18.80
2018-09-15T17:55:33.992Z,18.80
2018-09-15T17:58:09.024Z,18.70
2018-09-15T18:00:44.154Z,18.60
2018-09-15T18:03:20.625Z,18.50
2018-09-15T18:05:56.016Z,18.50
2018-09-15T18:08:31.304Z,18.40
2018-09-15T18:11:06.394Z,18.30
2018-09-15T18:13:41.582Z,18.20
2018-09-15T18:16:16.745Z,18.20
2018-09-15T18:18:51.459Z,18.10
2018-09-15T18:21:26.823Z,18.00
2018-09-15T18:24:02.242Z,17.90
2018-09-15T18:26:37.689Z,17.80
2018-09-15T18:29:12.836Z,17.80
2018-09-15T18:31:48.159Z,17.70
2018-09-15T18:34:23.747Z,17.70
2018-09-15T18:36:59.279Z,17.60
2018-09-15T18:39:35.102Z,17.60
2018-09-15T18:42:06.220Z,17.50
2018-09-15T18:44:41.797Z,17.40
2018-09-15T18:47:15.596Z,17.40
2018-09-15T18:49:50.587Z,17.40
2018-09-15T18:52:25.761Z,17.30
2018-09-15T18:55:06.377Z,17.30
2018-09-15T18:57:41.640Z,17.30
2018-09-15T19:00:17.178Z,17.20
2018-09-15T19:02:52.572Z,17.20
2018-09-15T19:05:28.066Z,17.20
2018-09-15T19:08:03.814Z,17.20
2018-09-15T19:10:38.848Z,17.10
2018-09-15T19:13:14.293Z,17.10
2018-09-15T19:15:49.392Z,17.00
2018-09-15T19:18:25.148Z,17.00
2018-09-15T19:21:00.205Z,17.00
2018-09-15T19:23:31.713Z,17.00
2018-09-15T19:26:07.389Z,16.90
2018-09-15T19:28:42.459Z,16.90
2018-09-15T19:31:17.760Z,16.90
2018-09-15T19:33:53.135Z,16.90
2018-09-15T19:36:28.217Z,16.80
2018-09-15T19:39:04.961Z,16.80
2018-09-15T19:41:40.315Z,16.80
2018-09-15T19:44:15.517Z,16.70
2018-09-15T19:46:51.527Z,16.70
2018-09-15T19:49:26.676Z,16.70
2018-09-15T19:52:02.114Z,16.70
2018-09-15T19:54:37.098Z,16.70
2018-09-15T19:57:12.234Z,16.70
2018-09-15T19:59:41.960Z,16.60
2018-09-15T20:02:16.667Z,16.60
2018-09-15T20:04:51.685Z,16.60
2018-09-15T20:07:26.690Z,16.50
2018-09-15T20:10:01.684Z,16.50
2018-09-15T20:12:36.728Z,16.50
2018-09-15T20:15:25.458Z,16.50
2018-09-15T20:17:59.547Z,16.50
2018-09-15T20:20:33.291Z,16.50
2018-09-15T20:23:08.935Z,16.50
2018-09-15T20:25:44.101Z,16.50
2018-09-15T20:28:19.219Z,16.50
2018-09-15T20:30:54.001Z,16.50
2018-09-15T20:33:29.847Z,16.40
2018-09-15T20:36:05.022Z,16.40
2018-09-15T20:38:40.111Z,16.40
2018-09-15T20:41:15.060Z,16.40
2018-09-15T20:46:11.692Z,16.30
2018-09-15T20:48:41.318Z,16.20
2018-09-15T20:51:17.000Z,16.20
2018-09-15T20:53:52.211Z,16.10
2018-09-15T20:56:27.181Z,16.10
2018-09-15T20:58:56.508Z,16.10
2018-09-15T21:01:31.711Z,16.10
2018-09-15T21:04:07.564Z,16.10
2018-09-15T21:06:42.556Z,16.10
2018-09-15T21:09:12.624Z,16.00
2018-09-15T21:11:47.760Z,16.00
2018-09-15T21:14:22.854Z,16.50
2018-09-15T21:16:58.388Z,15.90
2018-09-15T21:19:33.948Z,15.90
2018-09-15T21:22:09.020Z,15.90
2018-09-15T21:24:43.922Z,15.90
2018-09-15T21:27:18.929Z,15.90
2018-09-15T21:29:54.185Z,15.90
2018-09-15T21:32:29.380Z,15.90
2018-09-15T21:35:04.496Z,15.90
2018-09-15T21:37:39.528Z,15.80
2018-09-15T21:40:14.953Z,15.80
2018-09-15T21:42:49.949Z,15.80
2018-09-15T21:45:25.048Z,15.80
2018-09-15T21:48:00.158Z,15.80
2018-09-15T21:50:35.556Z,15.70
2018-09-15T21:53:10.218Z,15.70
2018-09-15T21:55:45.197Z,15.70
2018-09-15T21:58:20.274Z,15.60
2018-09-15T22:01:00.603Z,15.60
2018-09-15T22:03:40.929Z,15.60
2018-09-15T22:06:16.347Z,15.60
2018-09-15T22:08:51.245Z,15.50
2018-09-15T22:11:26.080Z,15.50
2018-09-15T22:14:01.320Z,15.50
2018-09-15T22:16:36.237Z,15.50
2018-09-15T22:19:11.470Z,15.50
2018-09-15T22:21:46.547Z,15.50
2018-09-15T22:24:22.145Z,15.50
2018-09-15T22:26:56.954Z,15.50
2018-09-15T22:29:31.896Z,15.40
2018-09-15T22:32:07.194Z,15.90
2018-09-15T22:34:42.137Z,15.40
2018-09-15T22:37:17.507Z,15.40
2018-09-15T22:39:52.332Z,15.40
2018-09-15T22:42:27.429Z,15.30
2018-09-15T22:45:02.073Z,15.30
2018-09-15T22:47:37.266Z,15.30
2018-09-15T22:50:12.434Z,15.30
2018-09-15T22:52:47.366Z,15.20
2018-09-15T22:55:22.240Z,15.20
2018-09-15T22:57:57.165Z,15.20
2018-09-15T23:00:32.449Z,15.20
2018-09-15T23:03:07.365Z,15.20
2018-09-15T23:05:42.372Z,15.10
2018-09-15T23:08:17.416Z,15.10
2018-09-15T23:10:52.132Z,15.10
2018-09-15T23:13:29.129Z,15.10
2018-09-15T23:16:04.112Z,15.10
2018-09-15T23:18:39.213Z,15.00
2018-09-15T23:21:14.160Z,15.00
2018-09-15T23:23:49.205Z,15.00
2018-09-15T23:26:24.159Z,15.00
2018-09-15T23:28:58.785Z,15.00
2018-09-15T23:31:33.607Z,15.00
2018-09-15T23:34:08.523Z,15.00
2018-09-15T23:36:43.641Z,15.00
2018-09-15T23:39:25.216Z,15.00
2018-09-15T23:41:59.922Z,15.00
2018-09-15T23:44:35.679Z,14.90
2018-09-15T23:47:10.733Z,14.90
2018-09-15T23:49:45.749Z,14.90
2018-09-15T23:52:21.112Z,14.90
2018-09-15T23:54:56.012Z,14.90
2018-09-15T23:57:31.602Z,14.90
